Time;durP1;ratioP1;P1;durP2;ratioP2;P2;SDS_P1;SDS_P2;PMS_P1;PMS_P2;Temp;Humidity;BMP_temperature;BMP_pressure;BME280_temperature;BME280_humidity;BME280_pressure;Samples;Min_cycle;Max_cycle;Signal;HPM_P1;HPM_P2
2022/08/12 00:42:52;;;;;;;0.90;0.50;;;;;;;;;;4967448;28;20144;-65
2022/08/12 00:45:18;;;;;;;5.53;0.73;;;;;;;;;;4967212;28;20503;-65
2022/08/12 00:47:43;;;;;;;0.85;0.60;;;;;;;;;;4966658;28;20034;-66
2022/08/12 00:50:16;;;;;;;0.80;0.60;;;;;;;;;;4966645;28;20056;-65
2022/08/12 00:52:43;;;;;;;0.75;0.52;;;;;;;;;;4966313;28;20351;-65
2022/08/12 00:55:08;;;;;;;1.88;0.60;;;;;;;;;;4966490;28;20029;-66
2022/08/12 00:57:35;;;;;;;1.20;0.68;;;;;;;;;;4966565;28;20494;-65
2022/08/12 01:00:00;;;;;;;1.48;0.98;;;;;;;;;;4966159;28;20452;-67
2022/08/12 01:02:29;;;;;;;3.42;0.70;;;;;;;;;;4958680;28;20399;-65
2022/08/12 01:13:13;;;;;;;3.30;0.60;;;;;;;;;;4966925;28;20474;-66
2022/08/12 01:15:39;;;;;;;0.60;0.60;;;;;;;;;;4970334;28;20467;-66
2022/08/12 01:18:05;;;;;;;0.93;0.45;;;;;;;;;;4969889;28;20540;-65
2022/08/12 01:21:15;;;;;;;2.85;0.50;;;;;;;;;;4969819;28;20025;-65
2022/08/12 01:23:50;;;;;;;0.82;0.70;;;;;;;;;;4955922;28;20345;-65
2022/08/12 01:26:22;;;;;;;1.05;0.50;;;;;;;;;;4969610;28;20345;-65
2022/08/12 01:28:49;;;;;;;1.00;0.60;;;;;;;;;;4970139;28;20386;-65
2022/08/12 01:31:16;;;;;;;0.88;0.70;;;;;;;;;;4970374;28;20406;-65
2022/08/12 01:33:49;;;;;;;1.67;0.90;;;;;;;;;;4969361;28;20052;-65
2022/08/12 01:36:16;;;;;;;1.40;0.60;;;;;;;;;;4969297;28;20371;-65
2022/08/12 01:38:46;;;;;;;1.60;0.43;;;;;;;;;;4971288;28;20435;-65
2022/08/12 01:41:12;;;;;;;1.10;0.85;;;;;;;;;;4969223;28;20432;-65
2022/08/12 01:43:39;;;;;;;1.00;0.57;;;;;;;;;;4971653;28;20348;-65
2022/08/12 01:46:18;;;;;;;0.68;0.60;;;;;;;;;;4970568;28;20403;-65
2022/08/12 01:49:03;;;;;;;1.98;0.70;;;;;;;;;;4969653;28;20432;-65
2022/08/12 01:51:41;;;;;;;0.70;0.50;;;;;;;;;;4969628;28;20482;-65
2022/08/12 01:54:15;;;;;;;0.68;0.50;;;;;;;;;;4971036;28;20423;-65
2022/08/12 01:56:49;;;;;;;1.15;0.70;;;;;;;;;;4970483;28;20471;-65
2022/08/12 02:02:10;;;;;;;1.88;0.85;;;;;;;;;;4970404;28;20521;-65
2022/08/12 02:11:21;;;;;;;1.27;0.88;;;;;;;;;;4969933;28;20372;-65
2022/08/12 02:14:11;;;;;;;1.15;0.60;;;;;;;;;;4970001;28;20402;-65
2022/08/12 02:16:52;;;;;;;0.90;0.63;;;;;;;;;;4970978;28;20463;-65
2022/08/12 02:19:41;;;;;;;0.77;0.50;;;;;;;;;;4970163;28;20399;-65
2022/08/12 02:22:17;;;;;;;0.50;0.50;;;;;;;;;;4969881;28;20448;-65
2022/08/12 02:24:44;;;;;;;0.98;0.70;;;;;;;;;;4967186;28;20579;-65
2022/08/12 02:27:12;;;;;;;0.98;0.70;;;;;;;;;;4969928;28;20459;-65
2022/08/12 02:29:39;;;;;;;0.68;0.40;;;;;;;;;;4969317;28;20454;-65
2022/08/12 02:32:06;;;;;;;0.80;0.60;;;;;;;;;;4969362;28;20431;-65
2022/08/12 02:34:32;;;;;;;0.60;0.40;;;;;;;;;;4969764;28;20368;-65
2022/08/12 02:36:59;;;;;;;1.08;0.50;;;;;;;;;;4969983;28;20452;-65
2022/08/12 02:39:26;;;;;;;0.95;0.40;;;;;;;;;;4969667;28;20023;-65
2022/08/12 02:41:53;;;;;;;0.70;0.60;;;;;;;;;;4968084;28;20518;-65
2022/08/12 02:44:22;;;;;;;0.73;0.60;;;;;;;;;;4969358;28;20420;-65
2022/08/12 02:46:49;;;;;;;0.85;0.50;;;;;;;;;;4969463;28;20471;-65
2022/08/12 02:49:30;;;;;;;0.80;0.55;;;;;;;;;;4968515;28;20382;-65
2022/08/12 02:51:58;;;;;;;3.03;0.75;;;;;;;;;;4968126;28;20456;-69
2022/08/12 02:54:25;;;;;;;0.68;0.63;;;;;;;;;;4969817;28;20424;-65
2022/08/12 02:56:51;;;;;;;0.82;0.50;;;;;;;;;;4969285;28;20464;-65
2022/08/12 02:59:19;;;;;;;0.80;0.73;;;;;;;;;;4969282;28;20570;-65
2022/08/12 03:01:47;;;;;;;1.08;0.63;;;;;;;;;;4967806;28;20439;-64
2022/08/12 03:04:18;;;;;;;1.40;0.65;;;;;;;;;;4970053;28;20412;-65
2022/08/12 03:06:48;;;;;;;1.55;0.57;;;;;;;;;;4968045;28;20431;-65
2022/08/12 03:09:15;;;;;;;2.67;0.60;;;;;;;;;;4967652;28;20412;-65
2022/08/12 03:11:53;;;;;;;0.88;0.60;;;;;;;;;;4967468;28;20088;-65
2022/08/12 03:14:21;;;;;;;1.02;0.50;;;;;;;;;;4968018;28;20522;-65
2022/08/12 03:16:49;;;;;;;0.50;0.40;;;;;;;;;;4967195;28;20502;-66
2022/08/12 03:19:19;;;;;;;1.30;0.70;;;;;;;;;;4968783;28;20352;-65
2022/08/12 03:21:46;;;;;;;0.90;0.60;;;;;;;;;;4967436;28;20037;-65
2022/08/12 03:24:16;;;;;;;1.00;0.70;;;;;;;;;;4967341;28;20466;-65
2022/08/12 03:26:44;;;;;;;0.90;0.50;;;;;;;;;;4968612;28;20352;-65
2022/08/12 03:29:11;;;;;;;0.55;0.40;;;;;;;;;;4968107;28;20444;-65
2022/08/12 03:31:36;;;;;;;0.60;0.50;;;;;;;;;;4967236;28;20455;-65
2022/08/12 03:34:06;;;;;;;0.75;0.50;;;;;;;;;;4968613;28;20148;-65
2022/08/12 03:36:33;;;;;;;8.10;0.80;;;;;;;;;;4968220;28;20057;-66
2022/08/12 03:41:54;;;;;;;0.52;0.50;;;;;;;;;;4968347;28;20095;-65
2022/08/12 04:00:48;;;;;;;0.40;0.40;;;;;;;;;;4967479;28;20521;-65
2022/08/12 04:06:43;;;;;;;0.88;0.63;;;;;;;;;;4946380;28;20488;-65
2022/08/12 04:09:09;;;;;;;0.80;0.63;;;;;;;;;;4940749;28;20481;-64
2022/08/12 04:14:26;;;;;;;3.03;0.80;;;;;;;;;;4968588;28;20513;-64
2022/08/12 04:16:51;;;;;;;0.75;0.50;;;;;;;;;;4969169;28;20371;-65
2022/08/12 04:19:18;;;;;;;1.08;0.75;;;;;;;;;;4969968;28;20033;-66
2022/08/12 04:21:44;;;;;;;0.50;0.50;;;;;;;;;;4968325;28;20411;-65
2022/08/12 04:24:10;;;;;;;1.63;0.60;;;;;;;;;;4967026;28;20064;-65
2022/08/12 04:26:38;;;;;;;0.73;0.70;;;;;;;;;;4967854;28;20356;-65
2022/08/12 04:29:03;;;;;;;0.65;0.60;;;;;;;;;;4968667;28;20148;-65
2022/08/12 04:31:41;;;;;;;0.65;0.47;;;;;;;;;;4968036;28;20425;-65
2022/08/12 04:34:07;;;;;;;1.38;0.60;;;;;;;;;;4967963;28;20344;-64
2022/08/12 04:36:36;;;;;;;0.88;0.77;;;;;;;;;;4968022;28;20033;-65
2022/08/12 04:39:03;;;;;;;0.82;0.77;;;;;;;;;;4968196;28;20523;-65
2022/08/12 04:41:30;;;;;;;0.63;0.63;;;;;;;;;;4967736;28;20348;-65
2022/08/12 04:43:56;;;;;;;0.90;0.77;;;;;;;;;;4967894;28;20166;-65
2022/08/12 04:46:22;;;;;;;3.05;0.65;;;;;;;;;;4967588;28;20025;-66
2022/08/12 04:48:48;;;;;;;0.75;0.57;;;;;;;;;;4969646;28;20459;-64
2022/08/12 04:51:13;;;;;;;0.85;0.60;;;;;;;;;;4971636;28;20436;-65
2022/08/12 04:53:42;;;;;;;0.68;0.47;;;;;;;;;;4972655;28;20348;-65
2022/08/12 04:56:09;;;;;;;0.52;0.50;;;;;;;;;;4971557;28;20049;-65
2022/08/12 04:58:35;;;;;;;5.60;0.82;;;;;;;;;;4971607;28;20048;-65
2022/08/12 05:01:01;;;;;;;0.60;0.40;;;;;;;;;;4973375;28;20363;-64
2022/08/12 05:03:27;;;;;;;0.80;0.40;;;;;;;;;;4971421;28;20436;-65
2022/08/12 05:05:54;;;;;;;1.67;0.50;;;;;;;;;;4971554;28;20341;-65
2022/08/12 05:08:21;;;;;;;0.77;0.70;;;;;;;;;;4971750;28;20123;-64
2022/08/12 05:10:47;;;;;;;1.15;0.70;;;;;;;;;;4971385;28;20539;-65
2022/08/12 05:13:16;;;;;;;1.02;0.65;;;;;;;;;;4971358;28;20507;-65
2022/08/12 05:15:44;;;;;;;1.38;0.70;;;;;;;;;;4969865;28;20452;-65
2022/08/12 05:18:10;;;;;;;2.53;0.57;;;;;;;;;;4971072;28;20422;-65
2022/08/12 05:20:36;;;;;;;1.25;1.08;;;;;;;;;;4973035;28;20301;-64
2022/08/12 05:23:21;;;;;;;1.20;0.77;;;;;;;;;;4969554;28;20025;-65
2022/08/12 05:25:50;;;;;;;1.92;0.80;;;;;;;;;;4972213;28;20386;-65
2022/08/12 05:28:17;;;;;;;3.38;0.75;;;;;;;;;;4970804;28;20445;-65
2022/08/12 05:30:43;;;;;;;1.25;0.75;;;;;;;;;;4970562;28;20395;-65
2022/08/12 05:33:10;;;;;;;0.73;0.52;;;;;;;;;;4970684;28;20464;-65
2022/08/12 05:35:41;;;;;;;1.17;0.80;;;;;;;;;;4971196;28;20376;-65
2022/08/12 05:40:55;;;;;;;0.73;0.57;;;;;;;;;;4971909;28;20538;-65
2022/08/12 05:43:20;;;;;;;2.05;0.80;;;;;;;;;;4970634;28;20511;-65
2022/08/12 05:45:46;;;;;;;1.45;0.70;;;;;;;;;;4972734;28;20590;-65
2022/08/12 05:48:12;;;;;;;1.42;0.73;;;;;;;;;;4970967;28;20079;-64
2022/08/12 05:50:38;;;;;;;2.33;1.00;;;;;;;;;;4970838;28;20444;-65
2022/08/12 05:53:05;;;;;;;2.00;0.80;;;;;;;;;;4970339;28;20096;-65
2022/08/12 05:55:30;;;;;;;1.15;0.93;;;;;;;;;;4971664;28;20424;-64
2022/08/12 05:57:56;;;;;;;1.25;0.85;;;;;;;;;;4970702;28;20506;-65
2022/08/12 06:00:24;;;;;;;1.05;0.80;;;;;;;;;;4971189;28;20509;-65
2022/08/12 06:02:55;;;;;;;2.00;1.17;;;;;;;;;;4971043;28;20025;-65
2022/08/12 06:05:22;;;;;;;0.77;0.77;;;;;;;;;;4970732;28;20252;-65
2022/08/12 06:07:48;;;;;;;1.20;0.82;;;;;;;;;;4970799;28;20384;-65
2022/08/12 06:10:15;;;;;;;1.25;0.80;;;;;;;;;;4971392;28;20452;-65
2022/08/12 06:12:41;;;;;;;1.67;0.95;;;;;;;;;;4970297;28;20429;-65
2022/08/12 06:15:06;;;;;;;2.00;0.70;;;;;;;;;;4972065;28;20494;-65
2022/08/12 06:17:32;;;;;;;1.17;0.98;;;;;;;;;;4970597;28;20398;-65
2022/08/12 06:19:57;;;;;;;0.90;0.70;;;;;;;;;;4970143;28;20391;-65
2022/08/12 06:22:25;;;;;;;2.00;1.08;;;;;;;;;;4971270;28;20048;-66
2022/08/12 06:24:54;;;;;;;3.25;1.10;;;;;;;;;;4970442;28;20423;-65
2022/08/12 06:27:20;;;;;;;0.77;0.68;;;;;;;;;;4970208;28;20097;-65
2022/08/12 06:29:46;;;;;;;1.20;1.10;;;;;;;;;;4969636;28;20046;-65
2022/08/12 06:32:12;;;;;;;1.00;0.80;;;;;;;;;;4969509;28;20096;-65
2022/08/12 06:34:37;;;;;;;0.93;0.90;;;;;;;;;;4970106;28;20060;-65
2022/08/12 06:37:03;;;;;;;0.80;0.73;;;;;;;;;;4969675;28;20380;-65
2022/08/12 06:39:28;;;;;;;1.10;0.90;;;;;;;;;;4970127;28;20077;-65
2022/08/12 06:44:38;;;;;;;1.92;1.05;;;;;;;;;;4970494;28;20407;-65
2022/08/12 06:47:03;;;;;;;1.40;1.05;;;;;;;;;;4969475;28;20033;-65
2022/08/12 06:49:34;;;;;;;2.05;1.20;;;;;;;;;;4969706;28;20537;-65
2022/08/12 06:51:59;;;;;;;1.80;1.30;;;;;;;;;;4969333;28;20447;-65
2022/08/12 06:54:24;;;;;;;1.50;0.88;;;;;;;;;;4969634;28;20436;-65
2022/08/12 06:56:51;;;;;;;1.17;0.90;;;;;;;;;;4969358;28;20451;-65
2022/08/12 06:59:20;;;;;;;2.60;0.82;;;;;;;;;;4969753;28;20425;-65
2022/08/12 07:01:45;;;;;;;;;;;;;;;;;;4968099;28;20368;-65
2022/08/12 07:04:11;;;;;;;1.17;0.90;;;;;;;;;;4969011;28;19913;-65
2022/08/12 07:06:36;;;;;;;4.18;1.02;;;;;;;;;;4969068;28;20448;-65
2022/08/12 07:09:03;;;;;;;1.33;0.88;;;;;;;;;;4967867;28;20502;-65
2022/08/12 07:11:32;;;;;;;1.25;1.00;;;;;;;;;;4969453;28;20045;-65
2022/08/12 07:13:59;;;;;;;1.13;0.90;;;;;;;;;;4951668;28;20322;-65
2022/08/12 07:16:25;;;;;;;1.35;0.95;;;;;;;;;;4968797;28;20525;-65
2022/08/12 07:18:52;;;;;;;1.27;0.90;;;;;;;;;;4968907;28;20380;-65
2022/08/12 07:21:18;;;;;;;2.40;1.30;;;;;;;;;;4968633;28;20353;-65
2022/08/12 07:23:44;;;;;;;1.20;0.93;;;;;;;;;;4968766;28;20475;-65
2022/08/12 07:26:14;;;;;;;1.38;1.00;;;;;;;;;;4969376;28;20444;-65
2022/08/12 07:28:41;;;;;;;1.00;0.75;;;;;;;;;;4968694;28;20372;-65
2022/08/12 07:31:08;;;;;;;1.67;1.05;;;;;;;;;;4970078;28;20182;-65
2022/08/12 07:33:37;;;;;;;3.33;1.27;;;;;;;;;;4968786;28;20325;-65
2022/08/12 07:36:05;;;;;;;1.30;1.10;;;;;;;;;;4968612;28;20033;-65
2022/08/12 07:38:33;;;;;;;3.23;1.00;;;;;;;;;;4968792;28;20424;-65
2022/08/12 07:41:04;;;;;;;3.33;0.93;;;;;;;;;;4968603;28;20415;-65
2022/08/12 07:43:32;;;;;;;1.67;1.10;;;;;;;;;;4970628;28;20482;-65
2022/08/12 07:45:59;;;;;;;2.05;1.73;;;;;;;;;;4968565;28;20502;-65
2022/08/12 07:48:25;;;;;;;2.28;1.30;;;;;;;;;;4968540;28;21030;-65
2022/08/12 07:50:51;;;;;;;1.77;1.17;;;;;;;;;;4968299;28;20436;-65
2022/08/12 07:53:16;;;;;;;1.15;0.93;;;;;;;;;;4966844;28;20056;-65
2022/08/12 07:55:42;;;;;;;2.03;1.27;;;;;;;;;;4970355;28;20436;-65
2022/08/12 07:58:07;;;;;;;1.60;1.15;;;;;;;;;;4968203;28;20448;-65
2022/08/12 08:00:35;;;;;;;1.13;1.02;;;;;;;;;;4969560;28;20496;-65
2022/08/12 08:03:01;;;;;;;1.00;0.90;;;;;;;;;;4968251;28;20414;-65
2022/08/12 08:05:33;;;;;;;1.48;1.00;;;;;;;;;;4966721;28;20026;-65
2022/08/12 08:08:01;;;;;;;1.35;0.90;;;;;;;;;;4968069;28;20112;-65
2022/08/12 08:10:28;;;;;;;1.80;1.00;;;;;;;;;;4968170;28;20376;-65
2022/08/12 08:12:54;;;;;;;1.40;1.00;;;;;;;;;;4968070;28;20537;-65
2022/08/12 08:15:26;;;;;;;1.58;1.00;;;;;;;;;;4968583;28;20399;-65
2022/08/12 08:18:01;;;;;;;2.78;1.02;;;;;;;;;;4968142;28;20448;-65
2022/08/12 08:20:29;;;;;;;1.35;1.02;;;;;;;;;;4968275;28;20088;-65
2022/08/12 08:22:56;;;;;;;0.82;0.80;;;;;;;;;;4969703;28;20095;-65
2022/08/12 08:25:29;;;;;;;1.65;1.27;;;;;;;;;;4972388;28;20025;-65
2022/08/12 08:27:57;;;;;;;1.35;1.17;;;;;;;;;;4972785;28;20391;-65
2022/08/12 08:30:22;;;;;;;1.33;1.10;;;;;;;;;;4971621;28;20472;-65
2022/08/12 08:32:48;;;;;;;1.17;1.00;;;;;;;;;;4972097;28;20385;-65
2022/08/12 08:35:14;;;;;;;1.92;1.08;;;;;;;;;;4973304;28;20399;-65
2022/08/12 08:37:40;;;;;;;1.27;0.90;;;;;;;;;;4972393;28;20433;-65
2022/08/12 08:42:50;;;;;;;1.38;1.00;;;;;;;;;;4972920;28;20107;-65
2022/08/12 08:45:16;;;;;;;1.50;0.90;;;;;;;;;;4972161;28;20450;-65
2022/08/12 08:47:45;;;;;;;2.25;1.00;;;;;;;;;;4971965;28;20026;-65
2022/08/12 08:50:14;;;;;;;1.73;1.30;;;;;;;;;;4971925;28;20384;-65
2022/08/12 08:52:43;;;;;;;1.13;0.90;;;;;;;;;;4971846;28;20464;-65
2022/08/12 08:55:12;;;;;;;1.50;1.30;;;;;;;;;;4971617;28;20527;-65
2022/08/12 08:57:48;;;;;;;1.60;0.90;;;;;;;;;;4971983;28;20532;-66
2022/08/12 09:00:18;;;;;;;1.23;1.00;;;;;;;;;;4971656;28;20347;-65
2022/08/12 09:02:44;;;;;;;3.67;1.00;;;;;;;;;;4971361;28;20033;-65
2022/08/12 09:05:10;;;;;;;2.10;1.15;;;;;;;;;;4971523;28;20349;-65
2022/08/12 09:07:46;;;;;;;1.08;0.90;;;;;;;;;;4971594;28;20372;-65
2022/08/12 09:10:15;;;;;;;1.17;1.02;;;;;;;;;;4971432;28;20375;-65
2022/08/12 09:15:25;;;;;;;1.77;0.98;;;;;;;;;;4972473;28;20466;-65
2022/08/12 09:17:54;;;;;;;0.80;0.80;;;;;;;;;;4971246;28;20339;-65
2022/08/12 09:20:21;;;;;;;1.88;1.20;;;;;;;;;;4971290;28;20400;-65
2022/08/12 09:22:47;;;;;;;1.55;1.02;;;;;;;;;;4969666;28;20437;-65
2022/08/12 09:25:12;;;;;;;1.25;1.10;;;;;;;;;;4973414;28;20340;-65
2022/08/12 09:27:37;;;;;;;1.35;1.00;;;;;;;;;;4971193;28;20345;-65
2022/08/12 09:30:05;;;;;;;1.52;1.00;;;;;;;;;;4970786;28;20384;-68
2022/08/12 09:32:30;;;;;;;1.23;1.13;;;;;;;;;;4972597;28;20387;-65
2022/08/12 09:34:56;;;;;;;1.10;1.00;;;;;;;;;;4970586;28;20391;-80
2022/08/12 09:37:25;;;;;;;0.80;0.80;;;;;;;;;;4971563;28;20353;-65
2022/08/12 09:39:52;;;;;;;3.38;0.98;;;;;;;;;;4971320;28;20431;-65
2022/08/12 09:47:48;;;;;;;1.08;0.85;;;;;;;;;;4971647;28;20055;-65
2022/08/12 09:50:15;;;;;;;1.80;1.08;;;;;;;;;;4970886;28;20322;-65
2022/08/12 09:52:42;;;;;;;1.80;1.10;;;;;;;;;;4970904;28;20033;-65
2022/08/12 09:55:09;;;;;;;1.10;0.90;;;;;;;;;;4969630;28;20056;-65
2022/08/12 09:57:35;;;;;;;1.38;1.05;;;;;;;;;;4970661;28;20356;-65
2022/08/12 10:00:05;;;;;;;0.80;0.77;;;;;;;;;;4972467;28;20033;-65
2022/08/12 10:02:36;;;;;;;1.45;1.08;;;;;;;;;;4971355;28;20347;-65
2022/08/12 10:05:02;;;;;;;2.55;1.10;;;;;;;;;;4970314;28;20391;-65
2022/08/12 10:07:29;;;;;;;1.38;1.15;;;;;;;;;;4971229;28;20317;-65
2022/08/12 10:09:54;;;;;;;0.90;0.80;;;;;;;;;;4970851;28;20425;-65
2022/08/12 10:15:03;;;;;;;1.00;0.90;;;;;;;;;;4970858;28;20099;-65
2022/08/12 10:17:29;;;;;;;1.30;0.98;;;;;;;;;;4970306;28;20025;-65
2022/08/12 10:19:54;;;;;;;1.10;0.90;;;;;;;;;;4971591;28;20452;-65
2022/08/12 10:22:20;;;;;;;1.50;0.85;;;;;;;;;;4969994;28;20395;-68
2022/08/12 10:29:35;;;;;;;1.10;0.90;;;;;;;;;;4970313;28;20029;-65
2022/08/12 10:30:16;;;;;;;1.73;0.88;;;;;;;;;;4970524;28;20364;-65
2022/08/12 10:32:42;;;;;;;1.20;1.05;;;;;;;;;;4970578;28;20025;-65
2022/08/12 10:35:08;;;;;;;1.67;1.20;;;;;;;;;;4970815;28;20022;-65
2022/08/12 10:37:34;;;;;;;1.33;1.00;;;;;;;;;;4970227;28;20349;-65
2022/08/12 10:39:59;;;;;;;1.00;0.88;;;;;;;;;;4969901;28;20103;-65
2022/08/12 10:45:09;;;;;;;1.35;0.95;;;;;;;;;;4969801;28;20549;-65
2022/08/12 10:47:36;;;;;;;1.42;1.05;;;;;;;;;;4969222;28;20507;-65
2022/08/12 10:50:04;;;;;;;1.35;0.98;;;;;;;;;;4971117;28;20116;-65
2022/08/12 10:52:29;;;;;;;1.20;0.95;;;;;;;;;;4970239;28;20352;-65
2022/08/12 10:54:56;;;;;;;1.40;1.23;;;;;;;;;;4970160;28;20068;-66
2022/08/12 10:57:25;;;;;;;1.17;0.95;;;;;;;;;;4969940;28;20440;-65
2022/08/12 10:59:54;;;;;;;1.38;1.00;;;;;;;;;;4969994;28;20076;-65
2022/08/12 11:02:21;;;;;;;1.83;0.75;;;;;;;;;;4969272;28;20454;-66
2022/08/12 11:04:47;;;;;;;1.30;1.02;;;;;;;;;;4969768;28;20053;-66
2022/08/12 11:07:14;;;;;;;1.20;1.10;;;;;;;;;;4969361;28;20389;-66
2022/08/12 11:09:40;;;;;;;1.13;0.90;;;;;;;;;;4969219;28;20455;-65
2022/08/12 11:12:06;;;;;;;1.45;1.13;;;;;;;;;;4969279;28;20491;-65
2022/08/12 11:14:37;;;;;;;1.42;1.00;;;;;;;;;;4969173;28;20448;-65
2022/08/12 11:17:05;;;;;;;1.35;1.00;;;;;;;;;;4968924;28;20436;-65
2022/08/12 11:19:32;;;;;;;;;;;;;;;;;;4969514;28;20467;-65
2022/08/12 11:21:57;;;;;;;1.88;1.10;;;;;;;;;;4970559;28;20294;-65
2022/08/12 11:24:24;;;;;;;1.05;0.85;;;;;;;;;;4968800;28;20099;-65
2022/08/12 11:26:50;;;;;;;0.90;0.80;;;;;;;;;;4969801;28;20490;-66
2022/08/12 11:29:20;;;;;;;2.92;1.00;;;;;;;;;;4968538;28;20388;-65
2022/08/12 11:31:46;;;;;;;1.30;0.90;;;;;;;;;;4968897;28;20459;-65
2022/08/12 11:34:15;;;;;;;1.17;1.00;;;;;;;;;;4968567;28;20085;-65
2022/08/12 11:37:04;;;;;;;2.10;1.00;;;;;;;;;;4968795;28;20112;-65
2022/08/12 11:39:31;;;;;;;0.80;0.80;;;;;;;;;;4968432;28;20424;-65
2022/08/12 11:41:56;;;;;;;1.35;0.98;;;;;;;;;;4969134;28;20341;-66
2022/08/12 11:44:22;;;;;;;0.95;0.80;;;;;;;;;;4967024;28;20052;-66
2022/08/12 11:46:48;;;;;;;0.90;0.80;;;;;;;;;;4969093;28;20433;-66
2022/08/12 11:49:13;;;;;;;0.85;0.63;;;;;;;;;;4968385;28;20423;-63
2022/08/12 11:51:39;;;;;;;1.88;0.90;;;;;;;;;;4968300;28;20029;-64
2022/08/12 11:54:05;;;;;;;0.77;0.57;;;;;;;;;;4970550;28;20467;-63
2022/08/12 11:56:31;;;;;;;2.53;0.70;;;;;;;;;;4968214;28;20482;-64
2022/08/12 11:58:56;;;;;;;0.90;0.68;;;;;;;;;;4968236;28;20421;-64
2022/08/12 12:01:22;;;;;;;1.30;0.75;;;;;;;;;;4968090;28;20029;-63
2022/08/12 12:03:47;;;;;;;0.95;0.70;;;;;;;;;;4968724;28;20419;-63
2022/08/12 12:06:14;;;;;;;1.35;1.05;;;;;;;;;;4968075;28;20380;-63
2022/08/12 12:08:39;;;;;;;1.02;0.70;;;;;;;;;;4969181;28;20347;-63
2022/08/12 12:11:04;;;;;;;0.88;0.80;;;;;;;;;;4968138;28;20410;-63
2022/08/12 12:13:30;;;;;;;0.82;0.73;;;;;;;;;;4968486;28;20420;-63
2022/08/12 12:15:55;;;;;;;0.70;0.60;;;;;;;;;;4968062;28;20030;-63
2022/08/12 12:18:28;;;;;;;1.17;0.80;;;;;;;;;;4968268;28;20452;-63
2022/08/12 12:20:56;;;;;;;1.42;0.90;;;;;;;;;;4967990;28;20029;-66
2022/08/12 12:23:22;;;;;;;1.05;0.80;;;;;;;;;;4968535;28;20053;-66
2022/08/12 12:25:47;;;;;;;1.65;0.90;;;;;;;;;;4968080;28;20532;-65
2022/08/12 12:28:13;;;;;;;0.55;0.55;;;;;;;;;;4967941;28;20379;-65
2022/08/12 12:30:39;;;;;;;1.20;0.90;;;;;;;;;;4967763;28;20046;-66
2022/08/12 12:33:05;;;;;;;0.98;0.90;;;;;;;;;;4967984;28;20518;-65
2022/08/12 12:35:31;;;;;;;1.25;1.00;;;;;;;;;;4968204;28;20052;-66
2022/08/12 12:37:58;;;;;;;1.85;1.00;;;;;;;;;;4967897;28;20022;-66
2022/08/12 12:40:25;;;;;;;1.00;0.73;;;;;;;;;;4968053;28;20444;-66
2022/08/12 12:42:51;;;;;;;1.13;0.90;;;;;;;;;;4967914;28;20460;-66
2022/08/12 12:45:19;;;;;;;0.68;0.60;;;;;;;;;;4967919;28;20378;-66
2022/08/12 12:47:58;;;;;;;0.85;0.73;;;;;;;;;;4967770;28;20464;-63
2022/08/12 12:50:31;;;;;;;0.88;0.68;;;;;;;;;;4968034;28;20440;-63
2022/08/12 12:52:57;;;;;;;1.08;0.70;;;;;;;;;;4968318;28;20497;-66
2022/08/12 12:55:23;;;;;;;1.00;0.70;;;;;;;;;;4967945;28;20379;-66
2022/08/12 12:57:49;;;;;;;1.00;0.90;;;;;;;;;;4967760;28;20447;-66
2022/08/12 13:00:17;;;;;;;0.95;0.77;;;;;;;;;;4967956;28;20029;-66
2022/08/12 13:02:51;;;;;;;1.95;0.88;;;;;;;;;;4967797;28;20384;-66
2022/08/12 13:05:30;;;;;;;1.40;0.90;;;;;;;;;;4968309;28;20475;-65
2022/08/12 13:07:57;;;;;;;2.42;1.10;;;;;;;;;;4967853;28;20452;-65
2022/08/12 13:10:24;;;;;;;0.90;0.80;;;;;;;;;;4970559;28;20049;-66
2022/08/12 13:12:50;;;;;;;1.20;0.90;;;;;;;;;;4971675;28;20456;-66
2022/08/12 13:15:15;;;;;;;1.02;0.80;;;;;;;;;;4971233;28;20498;-65
2022/08/12 13:17:48;;;;;;;1.10;0.80;;;;;;;;;;4970947;28;20030;-65
2022/08/12 13:20:18;;;;;;;1.17;0.90;;;;;;;;;;4969914;28;20447;-66
2022/08/12 13:22:44;;;;;;;1.77;0.90;;;;;;;;;;4973600;28;20407;-65
2022/08/12 13:25:11;;;;;;;1.05;0.85;;;;;;;;;;4973086;28;20339;-65
2022/08/12 13:27:42;;;;;;;1.00;0.90;;;;;;;;;;4971084;28;20368;-65
2022/08/12 13:30:11;;;;;;;0.70;0.70;;;;;;;;;;4971119;28;20112;-65
2022/08/12 13:32:37;;;;;;;1.60;0.85;;;;;;;;;;4970284;28;20462;-65
2022/08/12 13:35:05;;;;;;;1.27;1.02;;;;;;;;;;4972773;28;20441;-66
2022/08/12 13:37:31;;;;;;;1.40;1.00;;;;;;;;;;4973085;28;20065;-65
2022/08/12 13:39:56;;;;;;;2.03;1.27;;;;;;;;;;4971861;28;20083;-65
2022/08/12 13:42:22;;;;;;;1.67;1.00;;;;;;;;;;4970541;28;20598;-65
2022/08/12 13:44:51;;;;;;;1.70;1.20;;;;;;;;;;4970564;28;20033;-65
2022/08/12 13:47:23;;;;;;;1.08;0.98;;;;;;;;;;4970889;28;20329;-66
2022/08/12 13:49:50;;;;;;;0.85;0.80;;;;;;;;;;4970540;28;20432;-65
2022/08/12 13:52:17;;;;;;;1.17;0.90;;;;;;;;;;4970470;28;20459;-65
2022/08/12 13:54:46;;;;;;;1.23;1.10;;;;;;;;;;4970530;28;20290;-65
2022/08/12 13:57:14;;;;;;;1.45;1.15;;;;;;;;;;4970969;28;20176;-65
2022/08/12 13:59:40;;;;;;;1.98;1.02;;;;;;;;;;4968893;28;20459;-65
2022/08/12 14:02:09;;;;;;;1.52;1.20;;;;;;;;;;4971713;28;20325;-65
2022/08/12 14:04:35;;;;;;;1.08;0.98;;;;;;;;;;4970318;28;20585;-65
2022/08/12 14:07:04;;;;;;;1.30;1.15;;;;;;;;;;4970487;28;20480;-66
2022/08/12 14:09:30;;;;;;;;;;;;;;;;;;4971512;28;20340;-66
2022/08/12 14:11:56;;;;;;;1.60;1.30;;;;;;;;;;4970185;28;20262;-65
2022/08/12 14:14:21;;;;;;;2.88;1.40;;;;;;;;;;4969840;28;20472;-66
2022/08/12 14:16:46;;;;;;;1.85;1.27;;;;;;;;;;4970538;28;20378;-66
2022/08/12 14:19:12;;;;;;;1.13;1.00;;;;;;;;;;4968830;28;20344;-65
2022/08/12 14:21:37;;;;;;;1.17;1.08;;;;;;;;;;4968575;28;20026;-65
2022/08/12 14:24:03;;;;;;;1.30;1.00;;;;;;;;;;4969842;28;20432;-65
2022/08/12 14:26:28;;;;;;;2.63;1.70;;;;;;;;;;4970030;28;20377;-65
2022/08/12 14:28:54;;;;;;;1.27;1.00;;;;;;;;;;4969359;28;20427;-65
2022/08/12 14:31:22;;;;;;;1.10;1.00;;;;;;;;;;4968378;28;20317;-65
2022/08/12 14:33:51;;;;;;;1.02;0.93;;;;;;;;;;4970019;28;20029;-65
2022/08/12 14:36:21;;;;;;;1.25;0.98;;;;;;;;;;4969526;28;20451;-65
2022/08/12 14:38:48;;;;;;;1.08;0.98;;;;;;;;;;4970764;28;20105;-65
2022/08/12 14:41:18;;;;;;;1.63;1.00;;;;;;;;;;4969406;28;20091;-65
2022/08/12 14:43:46;;;;;;;1.98;1.23;;;;;;;;;;4969632;28;20440;-65
2022/08/12 14:46:17;;;;;;;1.65;1.08;;;;;;;;;;4969744;28;20428;-65
2022/08/12 14:48:45;;;;;;;2.10;1.30;;;;;;;;;;4971691;28;20424;-65
2022/08/12 14:51:11;;;;;;;1.85;1.00;;;;;;;;;;4969395;28;20452;-65
2022/08/12 14:53:37;;;;;;;4.82;1.27;;;;;;;;;;4969255;28;20411;-65
2022/08/12 14:56:03;;;;;;;1.48;1.02;;;;;;;;;;4969606;28;20412;-65
2022/08/12 14:58:29;;;;;;;0.93;0.93;;;;;;;;;;4967929;28;20339;-65
2022/08/12 15:03:38;;;;;;;4.57;1.30;;;;;;;;;;4969216;28;20482;-65
2022/08/12 15:06:06;;;;;;;2.22;1.30;;;;;;;;;;4970202;28;20460;-65
2022/08/12 15:08:42;;;;;;;1.30;1.17;;;;;;;;;;4970877;28;20466;-65
2022/08/12 15:11:12;;;;;;;1.90;1.30;;;;;;;;;;4969425;28;20391;-65
2022/08/12 15:13:48;;;;;;;4.68;1.40;;;;;;;;;;4968868;28;20514;-65
2022/08/12 15:16:15;;;;;;;2.03;1.17;;;;;;;;;;4969247;28;20448;-66
2022/08/12 15:18:40;;;;;;;1.45;1.20;;;;;;;;;;4969051;28;20432;-65
2022/08/12 15:21:06;;;;;;;2.13;1.33;;;;;;;;;;4969979;28;20455;-65
2022/08/12 15:23:35;;;;;;;1.80;1.33;;;;;;;;;;4968998;28;20590;-65
2022/08/12 15:26:05;;;;;;;1.30;0.98;;;;;;;;;;4969187;28;20348;-65
2022/08/12 15:28:32;;;;;;;1.50;1.02;;;;;;;;;;4969146;28;20029;-65
2022/08/12 15:30:59;;;;;;;1.05;0.95;;;;;;;;;;4968329;28;20459;-65
2022/08/12 15:33:27;;;;;;;2.22;1.10;;;;;;;;;;4969098;28;20464;-65
2022/08/12 15:35:53;;;;;;;1.75;1.13;;;;;;;;;;4968826;28;20495;-65
2022/08/12 15:38:19;;;;;;;3.95;1.20;;;;;;;;;;4967084;28;20069;-65
2022/08/12 15:40:48;;;;;;;2.38;1.00;;;;;;;;;;4968578;28;20483;-65
2022/08/12 15:43:14;;;;;;;2.50;1.40;;;;;;;;;;4970091;28;20344;-65
2022/08/12 15:45:40;;;;;;;1.42;1.15;;;;;;;;;;4968743;28;20367;-65
2022/08/12 15:48:07;;;;;;;1.23;1.10;;;;;;;;;;4968474;28;20467;-65
2022/08/12 15:50:33;;;;;;;1.55;1.17;;;;;;;;;;4969798;28;20047;-65
2022/08/12 15:52:59;;;;;;;1.88;1.50;;;;;;;;;;4968101;28;20391;-66
2022/08/12 15:55:25;;;;;;;1.20;1.00;;;;;;;;;;4968364;28;20467;-65
2022/08/12 15:57:52;;;;;;;1.45;1.20;;;;;;;;;;4969131;28;20371;-65
2022/08/12 16:00:38;;;;;;;1.80;1.25;;;;;;;;;;4968191;28;20131;-65
2022/08/12 16:03:06;;;;;;;1.30;1.08;;;;;;;;;;4968617;28;20029;-65
2022/08/12 16:05:37;;;;;;;1.38;1.20;;;;;;;;;;4968549;28;20452;-65
2022/08/12 16:08:04;;;;;;;1.17;1.00;;;;;;;;;;4968437;28;20331;-65
2022/08/12 16:10:29;;;;;;;1.40;1.17;;;;;;;;;;4968174;28;20387;-65
2022/08/12 16:12:58;;;;;;;3.58;1.00;;;;;;;;;;4968320;28;20352;-65
2022/08/12 16:15:26;;;;;;;1.77;1.30;;;;;;;;;;4968635;28;20483;-65
2022/08/12 16:17:53;;;;;;;1.80;1.50;;;;;;;;;;4967951;28;20352;-67
2022/08/12 16:20:21;;;;;;;1.25;1.15;;;;;;;;;;4969594;28;20498;-65
2022/08/12 16:22:51;;;;;;;1.58;1.25;;;;;;;;;;4968290;28;20440;-65
2022/08/12 16:25:22;;;;;;;1.83;1.30;;;;;;;;;;4967982;28;20456;-65
2022/08/12 16:27:50;;;;;;;1.33;1.23;;;;;;;;;;4967740;28;20025;-65
2022/08/12 16:30:23;;;;;;;;;;;;;;;;;;4967634;28;20368;-66
2022/08/12 16:32:49;;;;;;;2.15;1.42;;;;;;;;;;4967841;28;20246;-65
2022/08/12 16:35:15;;;;;;;1.55;1.30;;;;;;;;;;4967912;28;20436;-65
2022/08/12 16:37:41;;;;;;;2.08;1.50;;;;;;;;;;4967864;28;20033;-65
2022/08/12 16:40:08;;;;;;;1.83;1.30;;;;;;;;;;4969197;28;20454;-65